Dayton, OH (45415)

10:20 PM EST on December 27, 2014 (GMT -0500)
Englewood SCC Campus/Kleptz YMCA | Change Station
CLOSE
Current Station
Personal Weather Station
Location: Englewood, OH
Elevation: 984 ft
Nearby Weather Stations

Elev 984 ft 39.87 °N, 84.33 °W | Updated 5 seconds ago

Overcast
Overcast
45.9 °F
Feels Like 46 °F
N
3.0
Wind Variable Wind from WSW
Gusts 6.0 mph

Today
High -- | Low -- °F
--% Chance of Precip.
Yesterday
High -- | Low -- °F
Precip. -- in
7:57 AM 5:19 PM
Waxing Crescent, 43% visible
Pressure 30.07 in
Visibility 2.5 miles
Clouds Overcast 400 ft
Windchill 46 °F
Dew Point 44 °F
Humidity 95%
Rainfall 0.11 in
Snow Depth Not available.
UV 0.0 out of 12
Pollen .10 out of 12
Air Quality Not available.
Flu Activity Not available.
METAR KDAY 280256Z 23007KT 2 1/2SM -RA BR OVC004 08/07 A3006 RMK AO2 SFC VIS 3 SLP181 P0003 60003 T00830072 56003

More Conditions Fewer Conditions

Pressure 30.07 in
Visibility 2.5 miles
Clouds Overcast 400 ft
Windchill 46 °F
Dew Point 44 °F
Humidity 95%
Rainfall 0.11 in
Snow Depth Not available.
UV 0.0 out of 12
Pollen .10 out of 12
Air Quality Not available.
Flu Activity Not available.
METAR KDAY 280256Z 23007KT 2 1/2SM -RA BR OVC004 08/07 A3006 RMK AO2 SFC VIS 3 SLP181 P0003 60003 T00830072 56003

More Conditions Fewer Conditions

10-Day Weather Forecast

Almanac

Astronomy

Dec. 27, 2014 Rise Set
Actual Time
Civil Twilight
Nautical Twilight
Astronomical Twilight
Moon
Length of Visible Light
Length of Day
Tomorrow will be .
, % of the Moon is Illuminated

Today's Extremes

State Highs State Lows

Community

WunderPhotos

Upload Photos

1,781,179 photos uploaded!

WunderBlogs® & News

Nearby

Air Quality

  Air Quality AQ Index Pollutant
Not available.

Snow Depth

Station Depth Elevation

Earthquake Activity

City Distance Mag. Time & Date
Minimum magnitude displayed is 2.5.

Coastal Water Temperatures

Place Temperature

Nearby Weather Stations